L Ar Voaleden — FIMJ — position and weather

sailwx.info

Track history (hours):
 
Tides and Currents Weather Stations Pressure Air Temp Water Temp Dewpoint Dewpoint Depression Visibility Wind Speed Wind Dir Waves Ship Positions

L Ar Voaleden

Last reported at 2017-Nov-19 23:14 UTC. Time now 2017-Nov-22 02:01 UTC.
Position N 48°39' W 006°06'.

Length 24 m; draft 4 m.

Type: Fishing. MMSI: 226178000.

Date/timePositionNaut miles runAvg speedWind from/ knotsBaromVisibWave heightAir tempDewpointWater temp
2017-Nov-19 23:14N 48°39' W 006°06'1 3.2
2017-Nov-19 22:57N 48°40' W 006°06'1 3.2
2017-Nov-19 22:29N 48°41' W 006°05'2 3.2
2017-Nov-19 21:54N 48°43' W 006°05'2 3.5
2017-Nov-19 21:27N 48°45' W 006°06'2 3.5
2017-Nov-19 21:00N 48°46' W 006°05'2 3.5
2017-Nov-19 20:30N 48°48' W 006°05'2 3.5
2017-Nov-19 19:48N 48°50' W 006°04'1 3.9
2017-Nov-19 19:25N 48°52' W 006°03'1 1.3
2017-Nov-19 18:55N 48°51' W 006°03'1 2.4
2017-Nov-19 18:26N 48°50' W 006°04'16 2.0
2017-Nov-19 10:16N 48°34' W 006°09'6 3.4
2017-Nov-19 08:38N 48°39' W 006°06'1 3.6
2017-Nov-19 08:19N 48°40' W 006°05'2 3.6
2017-Nov-19 07:46N 48°42' W 006°05'7 3.4
2017-Nov-19 05:48N 48°49' W 006°05'1 1.8
2017-Nov-19 05:10N 48°48' W 006°06'1 2.6
2017-Nov-19 04:58N 48°47' W 006°06'9 3.2
2017-Nov-19 02:15N 48°39' W 006°09'1 3.6
2017-Nov-19 01:53N 48°38' W 006°09'2 3.4
2017-Nov-19 01:23N 48°36' W 006°11'2 3.3
2017-Nov-19 00:50N 48°35' W 006°12'2 3.7
2017-Nov-19 00:25N 48°33' W 006°13'9 2.8
2017-Nov-18 21:09N 48°41' W 006°05'1 3.4
2017-Nov-18 20:58N 48°41' W 006°05'2 3.5
2017-Nov-18 20:29N 48°43' W 006°06'5 3.6
2017-Nov-18 19:12N 48°47' W 006°03'6 2.5
2017-Nov-18 16:58N 48°52' W 005°58'1 1.6
2017-Nov-18 16:30N 48°53' W 005°59'2 3.3
2017-Nov-18 15:58N 48°53' W 006°01'3 3.4
2017-Nov-18 15:08N 48°50' W 006°04'5 3.4
2017-Nov-18 13:32N 48°45' W 006°05'1 3.4
2017-Nov-18 13:07N 48°44' W 006°06'2 3.3
2017-Nov-18 12:35N 48°42' W 006°05'0 3.2
2017-Nov-18 12:28N 48°42' W 006°05'2 3.0
2017-Nov-18 11:55N 48°40' W 006°04'1 2.9
2017-Nov-18 11:27N 48°40' W 006°02'3 3.0
2017-Nov-18 10:29N 48°39' W 005°58'14 2.4
2017-Nov-18 04:48N 48°48' W 005°41'1 3.1
2017-Nov-18 04:29N 48°48' W 005°42'1 2.5
2017-Nov-18 04:00N 48°48' W 005°43'4 3.5
2017-Nov-18 02:45N 48°46' W 005°49'4 3.6
2017-Nov-18 01:37N 48°43' W 005°53'1 3.6
2017-Nov-18 01:23N 48°42' W 005°53'3 3.4
2017-Nov-18 00:32N 48°39' W 005°55'0 3.2
2017-Nov-18 00:28N 48°39' W 005°56'3 0.3
2017-Nov-17 13:17N 48°42' W 005°53'10 1.2
2017-Nov-17 05:03N 48°49' W 005°43'10 0.8
2017-Nov-16 15:51N 48°60' W 005°44'4 3.2
2017-Nov-16 14:36N 48°59' W 005°50'4 3.5
2017-Nov-16 13:29N 48°57' W 005°55'6 1.1
2017-Nov-16 08:12N 48°52' W 005°56'1 2.7
2017-Nov-16 07:51N 48°52' W 005°55'2 2.9
2017-Nov-16 07:16N 48°54' W 005°54'1 3.1
2017-Nov-16 06:54N 48°55' W 005°53'3 3.5
2017-Nov-16 06:01N 48°57' W 005°50'0 5.5
2017-Nov-16 05:59N 48°58' W 005°50'0 0.3
2017-Nov-16 05:15N 48°57' W 005°50'4 2.7
2017-Nov-16 03:42N 48°55' W 005°55'2 4.6
2017-Nov-16 03:20N 48°53' W 005°57'1 2.3
2017-Nov-16 02:46N 48°53' W 005°59'1 3.3
2017-Nov-16 02:28N 48°52' W 005°60'2 3.5
2017-Nov-16 02:00N 48°51' W 006°02'2 3.5
2017-Nov-16 01:30N 48°50' W 006°04'5 3.5
2017-Nov-16 00:06N 48°45' W 006°05'1 1.3
2017-Nov-15 23:43N 48°46' W 006°05'1 2.3
2017-Nov-15 23:28N 48°46' W 006°05'1 2.3
2017-Nov-15 22:56N 48°47' W 006°05'1 2.3
2017-Nov-15 22:30N 48°48' W 006°05'1 2.5
2017-Nov-15 21:56N 48°50' W 006°04'1 2.7
2017-Nov-15 21:30N 48°51' W 006°04'2 2.9
2017-Nov-15 20:57N 48°52' W 006°03'3 3.2
2017-Nov-15 20:00N 48°55' W 006°00'3 3.6
2017-Nov-15 19:08N 48°58' W 005°59'1 6.4
2017-Nov-15 18:54N 48°59' W 005°58'0 0.3
2017-Nov-15 18:29N 48°59' W 005°58'2 2.3
2017-Nov-15 17:48N 48°58' W 005°59'1 2.3
2017-Nov-15 17:30N 48°57' W 005°59'2 2.5
2017-Nov-15 16:33N 48°55' W 006°01'5 3.0
2017-Nov-15 14:48N 48°50' W 006°04'1 3.0
2017-Nov-15 14:28N 48°49' W 006°05'2 3.1
2017-Nov-15 13:47N 48°47' W 006°05'1 3.0
2017-Nov-15 13:22N 48°46' W 006°05'3 3.2
2017-Nov-15 12:29N 48°43' W 006°05'2 3.3
2017-Nov-15 11:44N 48°41' W 006°05'1 3.5
2017-Nov-15 11:22N 48°39' W 006°06'5 3.8
2017-Nov-15 10:10N 48°35' W 006°08'3 2.4
2017-Nov-15 09:04N 48°38' W 006°07'3 3.1
2017-Nov-15 08:03N 48°40' W 006°05'1 3.1
2017-Nov-15 07:50N 48°41' W 006°05'36 3.2
2017-Nov-14 20:24N 48°13' W 005°32'4 9.8
2017-Nov-14 20:01N 48°10' W 005°27'5 9.7
2017-Nov-14 19:30N 48°07' W 005°22'5 9.5
2017-Nov-14 18:58N 48°04' W 005°15'4 9.2
2017-Nov-14 18:30N 48°02' W 005°10'5 9.1
2017-Nov-14 17:56N 47°60' W 005°03'4 9.1
2017-Nov-14 17:30N 47°58' W 004°58'5 9.2
2017-Nov-14 17:01N 47°56' W 004°52'5 9.3
2017-Nov-14 16:31N 47°55' W 004°45'5 9.2
2017-Nov-14 16:00N 47°53' W 004°39'6 9.2
2017-Nov-14 15:23N 47°51' W 004°31'4 9.3
2017-Nov-14 14:58N 47°49' W 004°25'2 3.2
2017-Nov-14 14:25N 47°49' W 004°23'0 0.0
2017-Nov-14 13:59N 47°49' W 004°23'0 0.0
2017-Nov-14 13:29N 47°49' W 004°23'0 0.0
2017-Nov-14 13:00N 47°49' W 004°23'0 0.0
2017-Nov-14 12:30N 47°49' W 004°23'0 0.0
2017-Nov-14 12:00N 47°49' W 004°23'0 0.0
2017-Nov-14 11:01N 47°49' W 004°23'0 0.0
2017-Nov-14 11:00N 47°49' W 004°23'0 0.0
2017-Nov-14 10:27N 47°49' W 004°23'0 0.0
2017-Nov-14 08:47N 47°49' W 004°23'0 0.0
2017-Nov-14 08:23N 47°49' W 004°23'0 0.0
2017-Nov-14 08:00N 47°49' W 004°23'0 0.0
2017-Nov-14 07:29N 47°49' W 004°23'0 0.0
2017-Nov-14 07:00N 47°49' W 004°23'0 0.0
2017-Nov-14 06:23N 47°49' W 004°23'0 0.0
2017-Nov-14 05:58N 47°49' W 004°23'0 0.0
2017-Nov-14 05:30N 47°49' W 004°23'0 0.0
2017-Nov-14 05:00N 47°49' W 004°23'0 0.0
2017-Nov-14 04:26N 47°49' W 004°23'0 0.0
2017-Nov-14 01:22N 47°49' W 004°23'0 0.0
2017-Nov-13 23:44N 47°49' W 004°23'25 1.1
2017-Nov-13 02:01N 47°56' W 004°58'3 5.6
2017-Nov-13 01:31N 47°57' W 005°02'2 4.6
2017-Nov-13 01:00N 47°57' W 005°05'2 4.4
2017-Nov-13 00:30N 47°58' W 005°08'2 4.2
2017-Nov-13 00:00N 47°59' W 005°11'2 4.0
2017-Nov-12 23:30N 47°60' W 005°14'2 4.0
2017-Nov-12 23:00N 48°01' W 005°17'2 4.3
2017-Nov-12 22:30N 48°01' W 005°20'2 4.3
2017-Nov-12 22:00N 48°02' W 005°23'2 4.3
2017-Nov-12 21:31N 48°03' W 005°26'2 4.4
2017-Nov-12 21:01N 48°03' W 005°29'3 5.3
2017-Nov-12 20:29N 48°04' W 005°33'2 5.1
2017-Nov-12 20:00N 48°05' W 005°36'3 5.1
2017-Nov-12 19:29N 48°06' W 005°40'2 3.5
2017-Nov-12 18:57N 48°06' W 005°43'3 3.5
2017-Nov-12 18:05N 48°08' W 005°46'45 2.1
2017-Nov-11 20:24N 48°53' W 005°56'8 7.5
2017-Nov-11 19:19N 49°01' W 005°54'0 0.6
2017-Nov-11 18:44N 49°01' W 005°53'5 2.2
2017-Nov-11 16:29N 49°03' W 005°46'6 0.5
2017-Nov-11 03:43N 48°57' W 005°49'6 1.3
2017-Nov-10 22:56N 49°03' W 005°52'15 2.2
2017-Nov-10 15:47N 48°49' W 005°59'3 2.9
2017-Nov-10 14:53N 48°51' W 005°57'1 3.1
2017-Nov-10 14:31N 48°52' W 005°56'2 3.2
2017-Nov-10 14:00N 48°53' W 005°55'2 3.3
2017-Nov-10 13:30N 48°55' W 005°54'2 3.3
2017-Nov-10 12:54N 48°57' W 005°53'  
Track history (hours):
 
Tides and Currents Weather Stations Pressure Air Temp Water Temp Dewpoint Dewpoint Depression Visibility Wind Speed Wind Dir Waves Ship Positions

L Ar Voaleden

Last reported at 2017-Nov-19 23:14 UTC. Time now 2017-Nov-22 02:01 UTC.
Position N 48°39' W 006°06'.

Length 24 m; draft 4 m.

Type: Fishing. MMSI: 226178000.

Date/timePositionNaut miles runAvg speedWind from/ knotsBaromVisibWave heightAir tempDewpointWater temp
2017-Nov-19 23:14N 48°39' W 006°06'1 3.2
2017-Nov-19 22:57N 48°40' W 006°06'1 3.2
2017-Nov-19 22:29N 48°41' W 006°05'2 3.2
2017-Nov-19 21:54N 48°43' W 006°05'2 3.5
2017-Nov-19 21:27N 48°45' W 006°06'2 3.5
2017-Nov-19 21:00N 48°46' W 006°05'2 3.5
2017-Nov-19 20:30N 48°48' W 006°05'2 3.5
2017-Nov-19 19:48N 48°50' W 006°04'1 3.9
2017-Nov-19 19:25N 48°52' W 006°03'1 1.3
2017-Nov-19 18:55N 48°51' W 006°03'1 2.4
2017-Nov-19 18:26N 48°50' W 006°04'16 2.0
2017-Nov-19 10:16N 48°34' W 006°09'6 3.4
2017-Nov-19 08:38N 48°39' W 006°06'1 3.6
2017-Nov-19 08:19N 48°40' W 006°05'2 3.6
2017-Nov-19 07:46N 48°42' W 006°05'7 3.4
2017-Nov-19 05:48N 48°49' W 006°05'1 1.8
2017-Nov-19 05:10N 48°48' W 006°06'1 2.6
2017-Nov-19 04:58N 48°47' W 006°06'9 3.2
2017-Nov-19 02:15N 48°39' W 006°09'1 3.6
2017-Nov-19 01:53N 48°38' W 006°09'2 3.4
2017-Nov-19 01:23N 48°36' W 006°11'2 3.3
2017-Nov-19 00:50N 48°35' W 006°12'2 3.7
2017-Nov-19 00:25N 48°33' W 006°13'9 2.8
2017-Nov-18 21:09N 48°41' W 006°05'1 3.4
2017-Nov-18 20:58N 48°41' W 006°05'2 3.5
2017-Nov-18 20:29N 48°43' W 006°06'5 3.6
2017-Nov-18 19:12N 48°47' W 006°03'6 2.5
2017-Nov-18 16:58N 48°52' W 005°58'1 1.6
2017-Nov-18 16:30N 48°53' W 005°59'2 3.3
2017-Nov-18 15:58N 48°53' W 006°01'3 3.4
2017-Nov-18 15:08N 48°50' W 006°04'5 3.4
2017-Nov-18 13:32N 48°45' W 006°05'1 3.4
2017-Nov-18 13:07N 48°44' W 006°06'2 3.3
2017-Nov-18 12:35N 48°42' W 006°05'0 3.2
2017-Nov-18 12:28N 48°42' W 006°05'2 3.0
2017-Nov-18 11:55N 48°40' W 006°04'1 2.9
2017-Nov-18 11:27N 48°40' W 006°02'3 3.0
2017-Nov-18 10:29N 48°39' W 005°58'14 2.4
2017-Nov-18 04:48N 48°48' W 005°41'1 3.1
2017-Nov-18 04:29N 48°48' W 005°42'1 2.5
2017-Nov-18 04:00N 48°48' W 005°43'4 3.5
2017-Nov-18 02:45N 48°46' W 005°49'4 3.6
2017-Nov-18 01:37N 48°43' W 005°53'1 3.6
2017-Nov-18 01:23N 48°42' W 005°53'3 3.4
2017-Nov-18 00:32N 48°39' W 005°55'0 3.2
2017-Nov-18 00:28N 48°39' W 005°56'3 0.3
2017-Nov-17 13:17N 48°42' W 005°53'10 1.2
2017-Nov-17 05:03N 48°49' W 005°43'10 0.8
2017-Nov-16 15:51N 48°60' W 005°44'4 3.2
2017-Nov-16 14:36N 48°59' W 005°50'4 3.5
2017-Nov-16 13:29N 48°57' W 005°55'6 1.1
2017-Nov-16 08:12N 48°52' W 005°56'1 2.7
2017-Nov-16 07:51N 48°52' W 005°55'2 2.9
2017-Nov-16 07:16N 48°54' W 005°54'1 3.1
2017-Nov-16 06:54N 48°55' W 005°53'3 3.5
2017-Nov-16 06:01N 48°57' W 005°50'0 5.5
2017-Nov-16 05:59N 48°58' W 005°50'0 0.3
2017-Nov-16 05:15N 48°57' W 005°50'4 2.7
2017-Nov-16 03:42N 48°55' W 005°55'2 4.6
2017-Nov-16 03:20N 48°53' W 005°57'1 2.3
2017-Nov-16 02:46N 48°53' W 005°59'1 3.3
2017-Nov-16 02:28N 48°52' W 005°60'2 3.5
2017-Nov-16 02:00N 48°51' W 006°02'2 3.5
2017-Nov-16 01:30N 48°50' W 006°04'5 3.5
2017-Nov-16 00:06N 48°45' W 006°05'1 1.3
2017-Nov-15 23:43N 48°46' W 006°05'1 2.3
2017-Nov-15 23:28N 48°46' W 006°05'1 2.3
2017-Nov-15 22:56N 48°47' W 006°05'1 2.3
2017-Nov-15 22:30N 48°48' W 006°05'1 2.5
2017-Nov-15 21:56N 48°50' W 006°04'1 2.7
2017-Nov-15 21:30N 48°51' W 006°04'2 2.9
2017-Nov-15 20:57N 48°52' W 006°03'3 3.2
2017-Nov-15 20:00N 48°55' W 006°00'3 3.6
2017-Nov-15 19:08N 48°58' W 005°59'1 6.4
2017-Nov-15 18:54N 48°59' W 005°58'0 0.3
2017-Nov-15 18:29N 48°59' W 005°58'2 2.3
2017-Nov-15 17:48N 48°58' W 005°59'1 2.3
2017-Nov-15 17:30N 48°57' W 005°59'2 2.5
2017-Nov-15 16:33N 48°55' W 006°01'5 3.0
2017-Nov-15 14:48N 48°50' W 006°04'1 3.0
2017-Nov-15 14:28N 48°49' W 006°05'2 3.1
2017-Nov-15 13:47N 48°47' W 006°05'1 3.0
2017-Nov-15 13:22N 48°46' W 006°05'3 3.2
2017-Nov-15 12:29N 48°43' W 006°05'2 3.3
2017-Nov-15 11:44N 48°41' W 006°05'1 3.5
2017-Nov-15 11:22N 48°39' W 006°06'5 3.8
2017-Nov-15 10:10N 48°35' W 006°08'3 2.4
2017-Nov-15 09:04N 48°38' W 006°07'3 3.1
2017-Nov-15 08:03N 48°40' W 006°05'1 3.1
2017-Nov-15 07:50N 48°41' W 006°05'36 3.2
2017-Nov-14 20:24N 48°13' W 005°32'4 9.8
2017-Nov-14 20:01N 48°10' W 005°27'5 9.7
2017-Nov-14 19:30N 48°07' W 005°22'5 9.5
2017-Nov-14 18:58N 48°04' W 005°15'4 9.2
2017-Nov-14 18:30N 48°02' W 005°10'5 9.1
2017-Nov-14 17:56N 47°60' W 005°03'4 9.1
2017-Nov-14 17:30N 47°58' W 004°58'5 9.2
2017-Nov-14 17:01N 47°56' W 004°52'5 9.3
2017-Nov-14 16:31N 47°55' W 004°45'5 9.2
2017-Nov-14 16:00N 47°53' W 004°39'6 9.2
2017-Nov-14 15:23N 47°51' W 004°31'4 9.3
2017-Nov-14 14:58N 47°49' W 004°25'2 3.2
2017-Nov-14 14:25N 47°49' W 004°23'0 0.0
2017-Nov-14 13:59N 47°49' W 004°23'0 0.0
2017-Nov-14 13:29N 47°49' W 004°23'0 0.0
2017-Nov-14 13:00N 47°49' W 004°23'0 0.0
2017-Nov-14 12:30N 47°49' W 004°23'0 0.0
2017-Nov-14 12:00N 47°49' W 004°23'0 0.0
2017-Nov-14 11:01N 47°49' W 004°23'0 0.0
2017-Nov-14 11:00N 47°49' W 004°23'0 0.0
2017-Nov-14 10:27N 47°49' W 004°23'0 0.0
2017-Nov-14 08:47N 47°49' W 004°23'0 0.0
2017-Nov-14 08:23N 47°49' W 004°23'0 0.0
2017-Nov-14 08:00N 47°49' W 004°23'0 0.0
2017-Nov-14 07:29N 47°49' W 004°23'0 0.0
2017-Nov-14 07:00N 47°49' W 004°23'0 0.0
2017-Nov-14 06:23N 47°49' W 004°23'0 0.0
2017-Nov-14 05:58N 47°49' W 004°23'0 0.0
2017-Nov-14 05:30N 47°49' W 004°23'0 0.0
2017-Nov-14 05:00N 47°49' W 004°23'0 0.0
2017-Nov-14 04:26N 47°49' W 004°23'0 0.0
2017-Nov-14 01:22N 47°49' W 004°23'0 0.0
2017-Nov-13 23:44N 47°49' W 004°23'25 1.1
2017-Nov-13 02:01N 47°56' W 004°58'3 5.6
2017-Nov-13 01:31N 47°57' W 005°02'2 4.6
2017-Nov-13 01:00N 47°57' W 005°05'2 4.4
2017-Nov-13 00:30N 47°58' W 005°08'2 4.2
2017-Nov-13 00:00N 47°59' W 005°11'2 4.0
2017-Nov-12 23:30N 47°60' W 005°14'2 4.0
2017-Nov-12 23:00N 48°01' W 005°17'2 4.3
2017-Nov-12 22:30N 48°01' W 005°20'2 4.3
2017-Nov-12 22:00N 48°02' W 005°23'2 4.3
2017-Nov-12 21:31N 48°03' W 005°26'2 4.4
2017-Nov-12 21:01N 48°03' W 005°29'3 5.3
2017-Nov-12 20:29N 48°04' W 005°33'2 5.1
2017-Nov-12 20:00N 48°05' W 005°36'3 5.1
2017-Nov-12 19:29N 48°06' W 005°40'2 3.5
2017-Nov-12 18:57N 48°06' W 005°43'3 3.5
2017-Nov-12 18:05N 48°08' W 005°46'45 2.1
2017-Nov-11 20:24N 48°53' W 005°56'8 7.5
2017-Nov-11 19:19N 49°01' W 005°54'0 0.6
2017-Nov-11 18:44N 49°01' W 005°53'5 2.2
2017-Nov-11 16:29N 49°03' W 005°46'6 0.5
2017-Nov-11 03:43N 48°57' W 005°49'6 1.3
2017-Nov-10 22:56N 49°03' W 005°52'15 2.2
2017-Nov-10 15:47N 48°49' W 005°59'3 2.9
2017-Nov-10 14:53N 48°51' W 005°57'1 3.1
2017-Nov-10 14:31N 48°52' W 005°56'2 3.2
2017-Nov-10 14:00N 48°53' W 005°55'2 3.3
2017-Nov-10 13:30N 48°55' W 005°54'2 3.3
2017-Nov-10 12:54N 48°57' W 005°53'  

Dump ship's entire track history